sensor_id;sensor_type;location;lat;lon;timestamp;P1;durP1;ratioP1;P2;durP2;ratioP2
33760;SDS011;20084;47.912;19.044;2022-08-19T08:53:56;6.32;;;5.22;;
33760;SDS011;20084;47.912;19.044;2022-08-19T08:56:22;5.00;;;4.55;;
33760;SDS011;20084;47.912;19.044;2022-08-19T08:58:50;27.60;;;5.50;;
33760;SDS011;20084;47.912;19.044;2022-08-19T09:01:17;23.25;;;5.78;;
33760;SDS011;20084;47.912;19.044;2022-08-19T09:03:43;5.15;;;4.65;;
33760;SDS011;20084;47.912;19.044;2022-08-19T09:17:11;5.65;;;4.32;;
33760;SDS011;20084;47.912;19.044;2022-08-19T09:19:49;4.85;;;4.30;;
33760;SDS011;20084;47.912;19.044;2022-08-19T09:22:15;7.15;;;4.28;;
33760;SDS011;20084;47.912;19.044;2022-08-19T09:24:40;7.22;;;3.92;;
33760;SDS011;20084;47.912;19.044;2022-08-19T09:27:06;5.00;;;4.38;;
33760;SDS011;20084;47.912;19.044;2022-08-19T09:29:31;5.32;;;3.90;;
33760;SDS011;20084;47.912;19.044;2022-08-19T09:31:57;6.18;;;4.30;;
33760;SDS011;20084;47.912;19.044;2022-08-19T09:34:23;4.30;;;3.92;;
33760;SDS011;20084;47.912;19.044;2022-08-19T09:36:49;4.93;;;4.22;;
33760;SDS011;20084;47.912;19.044;2022-08-19T09:39:20;4.88;;;4.10;;
33760;SDS011;20084;47.912;19.044;2022-08-19T09:41:46;5.78;;;3.67;;
33760;SDS011;20084;47.912;19.044;2022-08-19T09:44:11;6.68;;;3.58;;
33760;SDS011;20084;47.912;19.044;2022-08-19T09:46:38;5.50;;;4.10;;
33760;SDS011;20084;47.912;19.044;2022-08-19T09:49:04;7.30;;;4.00;;
33760;SDS011;20084;47.912;19.044;2022-08-19T09:51:31;5.35;;;4.38;;
33760;SDS011;20084;47.912;19.044;2022-08-19T09:53:59;4.97;;;4.03;;
33760;SDS011;20084;47.912;19.044;2022-08-19T09:56:26;5.00;;;3.92;;
33760;SDS011;20084;47.912;19.044;2022-08-19T09:58:52;6.25;;;3.33;;
33760;SDS011;20084;47.912;19.044;2022-08-19T10:01:22;7.20;;;3.45;;
33760;SDS011;20084;47.912;19.044;2022-08-19T10:03:50;3.45;;;3.15;;
33760;SDS011;20084;47.912;19.044;2022-08-19T10:06:19;12.20;;;3.70;;
33760;SDS011;20084;47.912;19.044;2022-08-19T10:08:46;3.70;;;3.28;;
33760;SDS011;20084;47.912;19.044;2022-08-19T10:11:13;6.15;;;3.45;;
33760;SDS011;20084;47.912;19.044;2022-08-19T10:13:41;6.60;;;3.90;;
33760;SDS011;20084;47.912;19.044;2022-08-19T10:16:10;6.50;;;4.00;;
33760;SDS011;20084;47.912;19.044;2022-08-19T10:18:38;4.22;;;3.63;;
33760;SDS011;20084;47.912;19.044;2022-08-19T10:21:11;4.70;;;3.42;;
33760;SDS011;20084;47.912;19.044;2022-08-19T10:23:43;4.18;;;3.78;;
33760;SDS011;20084;47.912;19.044;2022-08-19T10:26:11;5.28;;;3.40;;
33760;SDS011;20084;47.912;19.044;2022-08-19T10:28:39;5.05;;;3.80;;
33760;SDS011;20084;47.912;19.044;2022-08-19T10:31:06;7.45;;;4.20;;
33760;SDS011;20084;47.912;19.044;2022-08-19T10:33:33;5.15;;;3.30;;
33760;SDS011;20084;47.912;19.044;2022-08-19T10:36:04;5.03;;;3.53;;
33760;SDS011;20084;47.912;19.044;2022-08-19T10:38:32;5.20;;;3.58;;
33760;SDS011;20084;47.912;19.044;2022-08-19T10:41:08;6.07;;;3.65;;
33760;SDS011;20084;47.912;19.044;2022-08-19T10:43:39;4.78;;;3.67;;
33760;SDS011;20084;47.912;19.044;2022-08-19T10:46:06;4.43;;;3.50;;
33760;SDS011;20084;47.912;19.044;2022-08-19T10:48:33;4.82;;;3.28;;
33760;SDS011;20084;47.912;19.044;2022-08-19T10:51:00;3.50;;;3.00;;
33760;SDS011;20084;47.912;19.044;2022-08-19T10:53:45;4.38;;;3.88;;
33760;SDS011;20084;47.912;19.044;2022-08-19T10:56:11;4.50;;;3.90;;
33760;SDS011;20084;47.912;19.044;2022-08-19T10:58:55;7.70;;;3.38;;
33760;SDS011;20084;47.912;19.044;2022-08-19T11:01:23;7.28;;;3.55;;
33760;SDS011;20084;47.912;19.044;2022-08-19T11:03:49;6.75;;;3.50;;
33760;SDS011;20084;47.912;19.044;2022-08-19T11:06:15;3.50;;;3.20;;
33760;SDS011;20084;47.912;19.044;2022-08-19T11:08:40;6.22;;;3.47;;
33760;SDS011;20084;47.912;19.044;2022-08-19T11:11:09;7.32;;;3.83;;
33760;SDS011;20084;47.912;19.044;2022-08-19T11:13:36;4.18;;;3.33;;
33760;SDS011;20084;47.912;19.044;2022-08-19T11:16:06;3.20;;;3.00;;
33760;SDS011;20084;47.912;19.044;2022-08-19T11:18:39;7.18;;;3.72;;
33760;SDS011;20084;47.912;19.044;2022-08-19T11:21:12;4.75;;;4.07;;
33760;SDS011;20084;47.912;19.044;2022-08-19T11:23:44;5.65;;;3.47;;
33760;SDS011;20084;47.912;19.044;2022-08-19T11:26:12;6.07;;;3.20;;
33760;SDS011;20084;47.912;19.044;2022-08-19T11:28:39;5.72;;;3.58;;
33760;SDS011;20084;47.912;19.044;2022-08-19T11:31:09;7.60;;;3.50;;
33760;SDS011;20084;47.912;19.044;2022-08-19T11:33:40;3.65;;;3.35;;
33760;SDS011;20084;47.912;19.044;2022-08-19T11:36:06;7.30;;;3.55;;
33760;SDS011;20084;47.912;19.044;2022-08-19T11:38:33;8.85;;;3.80;;
33760;SDS011;20084;47.912;19.044;2022-08-19T11:41:03;4.22;;;3.38;;
33760;SDS011;20084;47.912;19.044;2022-08-19T11:43:32;4.68;;;3.10;;
33760;SDS011;20084;47.912;19.044;2022-08-19T11:45:58;6.07;;;3.47;;
33760;SDS011;20084;47.912;19.044;2022-08-19T11:48:24;6.38;;;3.67;;
33760;SDS011;20084;47.912;19.044;2022-08-19T11:50:50;4.65;;;3.40;;
33760;SDS011;20084;47.912;19.044;2022-08-19T11:53:18;6.78;;;3.40;;
33760;SDS011;20084;47.912;19.044;2022-08-19T11:55:45;4.35;;;3.20;;
33760;SDS011;20084;47.912;19.044;2022-08-19T11:58:12;6.72;;;3.38;;
33760;SDS011;20084;47.912;19.044;2022-08-19T12:00:39;7.95;;;3.20;;
33760;SDS011;20084;47.912;19.044;2022-08-19T12:03:05;6.55;;;3.35;;
33760;SDS011;20084;47.912;19.044;2022-08-19T12:05:31;4.15;;;3.63;;
33760;SDS011;20084;47.912;19.044;2022-08-19T12:07:57;4.93;;;3.40;;
33760;SDS011;20084;47.912;19.044;2022-08-19T12:10:23;4.32;;;3.13;;
33760;SDS011;20084;47.912;19.044;2022-08-19T12:12:49;5.07;;;3.28;;
33760;SDS011;20084;47.912;19.044;2022-08-19T12:15:15;3.40;;;3.10;;
33760;SDS011;20084;47.912;19.044;2022-08-19T12:17:41;9.20;;;3.50;;
33760;SDS011;20084;47.912;19.044;2022-08-19T12:20:08;6.63;;;3.50;;
33760;SDS011;20084;47.912;19.044;2022-08-19T12:22:38;6.35;;;3.85;;
33760;SDS011;20084;47.912;19.044;2022-08-19T12:25:06;7.87;;;3.13;;
33760;SDS011;20084;47.912;19.044;2022-08-19T12:27:34;7.18;;;3.10;;
33760;SDS011;20084;47.912;19.044;2022-08-19T12:30:01;7.88;;;4.20;;
33760;SDS011;20084;47.912;19.044;2022-08-19T12:32:27;5.63;;;3.22;;
33760;SDS011;20084;47.912;19.044;2022-08-19T12:34:53;9.35;;;2.92;;
33760;SDS011;20084;47.912;19.044;2022-08-19T12:37:19;6.20;;;3.20;;
33760;SDS011;20084;47.912;19.044;2022-08-19T12:39:45;6.75;;;3.10;;
33760;SDS011;20084;47.912;19.044;2022-08-19T12:42:11;7.43;;;3.28;;
33760;SDS011;20084;47.912;19.044;2022-08-19T12:44:39;6.15;;;2.78;;
33760;SDS011;20084;47.912;19.044;2022-08-19T12:47:06;9.18;;;2.90;;
33760;SDS011;20084;47.912;19.044;2022-08-19T12:49:33;7.57;;;3.22;;
33760;SDS011;20084;47.912;19.044;2022-08-19T12:52:00;4.45;;;2.95;;
33760;SDS011;20084;47.912;19.044;2022-08-19T12:54:26;5.20;;;3.25;;
33760;SDS011;20084;47.912;19.044;2022-08-19T12:56:52;7.10;;;3.50;;
33760;SDS011;20084;47.912;19.044;2022-08-19T12:59:17;5.95;;;3.10;;
33760;SDS011;20084;47.912;19.044;2022-08-19T13:01:43;4.72;;;2.95;;
33760;SDS011;20084;47.912;19.044;2022-08-19T13:04:09;7.38;;;3.38;;
33760;SDS011;20084;47.912;19.044;2022-08-19T13:06:35;5.90;;;3.40;;
33760;SDS011;20084;47.912;19.044;2022-08-19T13:09:01;10.45;;;3.45;;
33760;SDS011;20084;47.912;19.044;2022-08-19T13:11:28;6.45;;;2.92;;
33760;SDS011;20084;47.912;19.044;2022-08-19T13:13:57;4.85;;;3.00;;
33760;SDS011;20084;47.912;19.044;2022-08-19T13:16:23;8.00;;;3.42;;
33760;SDS011;20084;47.912;19.044;2022-08-19T13:18:50;6.97;;;3.80;;
33760;SDS011;20084;47.912;19.044;2022-08-19T13:21:17;7.88;;;3.20;;
33760;SDS011;20084;47.912;19.044;2022-08-19T13:23:44;6.38;;;3.13;;
33760;SDS011;20084;47.912;19.044;2022-08-19T13:26:10;3.97;;;3.28;;
33760;SDS011;20084;47.912;19.044;2022-08-19T13:28:37;5.68;;;3.10;;
33760;SDS011;20084;47.912;19.044;2022-08-19T13:31:22;11.07;;;3.45;;
33760;SDS011;20084;47.912;19.044;2022-08-19T13:34:07;8.70;;;3.17;;
33760;SDS011;20084;47.912;19.044;2022-08-19T13:36:33;4.03;;;2.85;;
33760;SDS011;20084;47.912;19.044;2022-08-19T13:38:59;7.72;;;3.47;;
33760;SDS011;20084;47.912;19.044;2022-08-19T13:41:25;5.25;;;3.13;;
33760;SDS011;20084;47.912;19.044;2022-08-19T13:43:52;5.55;;;3.40;;
33760;SDS011;20084;47.912;19.044;2022-08-19T13:46:17;6.57;;;3.35;;
33760;SDS011;20084;47.912;19.044;2022-08-19T13:48:44;5.95;;;3.60;;
33760;SDS011;20084;47.912;19.044;2022-08-19T13:51:11;9.50;;;3.55;;
33760;SDS011;20084;47.912;19.044;2022-08-19T13:53:37;4.75;;;3.50;;
33760;SDS011;20084;47.912;19.044;2022-08-19T13:56:08;6.13;;;3.95;;
33760;SDS011;20084;47.912;19.044;2022-08-19T13:58:37;7.05;;;3.90;;
33760;SDS011;20084;47.912;19.044;2022-08-19T14:01:04;10.77;;;3.92;;
33760;SDS011;20084;47.912;19.044;2022-08-19T14:03:31;7.90;;;3.33;;
33760;SDS011;20084;47.912;19.044;2022-08-19T14:05:58;9.25;;;3.60;;
33760;SDS011;20084;47.912;19.044;2022-08-19T14:08:24;6.72;;;3.60;;
33760;SDS011;20084;47.912;19.044;2022-08-19T14:10:52;33.00;;;5.47;;
33760;SDS011;20084;47.912;19.044;2022-08-19T14:13:24;18.67;;;3.35;;
33760;SDS011;20084;47.912;19.044;2022-08-19T14:15:50;13.00;;;3.13;;
33760;SDS011;20084;47.912;19.044;2022-08-19T14:18:17;15.40;;;3.13;;
33760;SDS011;20084;47.912;19.044;2022-08-19T14:20:43;10.50;;;3.30;;
33760;SDS011;20084;47.912;19.044;2022-08-19T14:23:09;11.52;;;3.17;;
33760;SDS011;20084;47.912;19.044;2022-08-19T14:25:37;9.40;;;3.05;;
33760;SDS011;20084;47.912;19.044;2022-08-19T14:28:03;6.88;;;2.85;;
33760;SDS011;20084;47.912;19.044;2022-08-19T14:30:29;13.30;;;3.20;;
33760;SDS011;20084;47.912;19.044;2022-08-19T14:32:58;5.18;;;2.63;;
33760;SDS011;20084;47.912;19.044;2022-08-19T14:35:26;7.53;;;3.03;;
33760;SDS011;20084;47.912;19.044;2022-08-19T14:37:53;8.90;;;2.78;;
33760;SDS011;20084;47.912;19.044;2022-08-19T14:40:20;8.57;;;2.92;;
33760;SDS011;20084;47.912;19.044;2022-08-19T14:42:50;9.60;;;2.80;;
33760;SDS011;20084;47.912;19.044;2022-08-19T14:45:17;8.23;;;2.78;;
33760;SDS011;20084;47.912;19.044;2022-08-19T14:47:42;6.78;;;2.83;;
33760;SDS011;20084;47.912;19.044;2022-08-19T14:50:09;7.05;;;2.58;;
33760;SDS011;20084;47.912;19.044;2022-08-19T14:52:36;6.93;;;2.90;;
33760;SDS011;20084;47.912;19.044;2022-08-19T14:55:02;6.70;;;2.50;;
33760;SDS011;20084;47.912;19.044;2022-08-19T14:57:29;12.68;;;3.05;;
33760;SDS011;20084;47.912;19.044;2022-08-19T14:59:55;8.20;;;2.70;;
33760;SDS011;20084;47.912;19.044;2022-08-19T15:02:22;12.13;;;2.67;;
33760;SDS011;20084;47.912;19.044;2022-08-19T15:04:48;12.88;;;2.75;;
33760;SDS011;20084;47.912;19.044;2022-08-19T15:07:13;10.45;;;2.70;;
33760;SDS011;20084;47.912;19.044;2022-08-19T15:09:39;9.30;;;3.00;;
33760;SDS011;20084;47.912;19.044;2022-08-19T15:12:05;7.65;;;2.90;;
33760;SDS011;20084;47.912;19.044;2022-08-19T15:14:32;9.13;;;2.55;;
33760;SDS011;20084;47.912;19.044;2022-08-19T15:16:59;11.93;;;2.88;;
33760;SDS011;20084;47.912;19.044;2022-08-19T15:19:27;10.43;;;2.60;;
33760;SDS011;20084;47.912;19.044;2022-08-19T15:21:53;8.52;;;2.67;;
33760;SDS011;20084;47.912;19.044;2022-08-19T15:24:19;12.50;;;3.03;;
33760;SDS011;20084;47.912;19.044;2022-08-19T15:26:46;11.95;;;2.83;;
33760;SDS011;20084;47.912;19.044;2022-08-19T15:29:11;10.90;;;2.63;;
33760;SDS011;20084;47.912;19.044;2022-08-19T15:31:41;13.55;;;3.05;;
33760;SDS011;20084;47.912;19.044;2022-08-19T15:34:07;11.50;;;3.08;;
33760;SDS011;20084;47.912;19.044;2022-08-19T15:36:33;8.55;;;3.05;;
33760;SDS011;20084;47.912;19.044;2022-08-19T15:39:00;9.27;;;3.25;;
33760;SDS011;20084;47.912;19.044;2022-08-19T15:41:27;8.52;;;2.53;;
33760;SDS011;20084;47.912;19.044;2022-08-19T15:44:28;9.85;;;2.88;;
33760;SDS011;20084;47.912;19.044;2022-08-19T15:46:47;8.50;;;2.67;;
33760;SDS011;20084;47.912;19.044;2022-08-19T15:49:14;10.73;;;3.17;;
33760;SDS011;20084;47.912;19.044;2022-08-19T15:51:42;8.13;;;2.50;;
33760;SDS011;20084;47.912;19.044;2022-08-19T15:54:11;10.32;;;2.28;;
33760;SDS011;20084;47.912;19.044;2022-08-19T15:56:39;10.50;;;2.50;;
33760;SDS011;20084;47.912;19.044;2022-08-19T15:59:24;17.13;;;2.63;;
33760;SDS011;20084;47.912;19.044;2022-08-19T16:02:09;8.63;;;2.38;;
